Time;durP1;ratioP1;P1;durP2;ratioP2;P2;SDS_P1;SDS_P2;PMS_P1;PMS_P2;Temp;Humidity;BMP_temperature;BMP_pressure;BME280_temperature;BME280_humidity;BME280_pressure;Samples;Min_cycle;Max_cycle;Signal;HPM_P1;HPM_P2
2021/04/01 00:00:13;;;;;;;14.40;10.30;;;;;;;11.57;38.72;99974.03;5056526;28;20033;-78
2021/04/01 00:02:38;;;;;;;11.45;9.68;;;;;;;11.27;38.41;99917.53;5057640;28;20029;-78
2021/04/01 00:05:06;;;;;;;13.02;10.32;;;;;;;11.58;38.39;99971.22;5057546;28;20031;-78
2021/04/01 00:07:32;;;;;;;12.48;10.75;;;;;;;11.35;38.51;99930.69;5057293;28;20057;-78
2021/04/01 00:09:57;;;;;;;13.50;10.95;;;;;;;11.61;38.62;99984.09;5057376;28;20036;-78
2021/04/01 00:12:22;;;;;;;13.48;10.52;;;;;;;11.59;38.52;99974.69;5057296;28;20029;-78
2021/04/01 00:14:48;;;;;;;13.75;11.07;;;;;;;11.45;38.27;99965.69;5057200;28;20376;-78
2021/04/01 00:17:15;;;;;;;15.35;11.82;;;;;;;11.57;38.55;99969.56;5056181;28;20028;-78
2021/04/01 00:19:40;;;;;;;14.25;11.65;;;;;;;11.54;38.80;99966.47;5057285;28;20029;-77
2021/04/01 00:22:06;;;;;;;18.50;13.80;;;;;;;11.39;38.93;99961.91;5057037;28;20040;-78
2021/04/01 00:24:32;;;;;;;17.10;13.05;;;;;;;11.27;39.14;99955.34;5057124;28;20033;-78
2021/04/01 00:26:58;;;;;;;16.65;14.55;;;;;;;11.23;39.12;99961.97;5055765;28;20039;-80
2021/04/01 00:29:23;;;;;;;17.10;14.07;;;;;;;10.94;39.12;99906.25;5057288;28;20024;-79
2021/04/01 00:31:48;;;;;;;16.92;14.52;;;;;;;11.26;38.88;99952.88;5056968;28;20033;-78
2021/04/01 00:34:14;;;;;;;20.25;15.90;;;;;;;11.27;38.67;99954.53;5057007;28;20036;-79
2021/04/01 00:36:39;;;;;;;20.85;15.85;;;;;;;10.84;38.68;99890.63;5057031;28;20021;-78
2021/04/01 00:39:05;;;;;;;18.23;14.70;;;;;;;11.26;39.18;99939.66;5056677;28;20067;-78
2021/04/01 00:41:31;;;;;;;16.52;13.52;;;;;;;10.99;38.84;99890.72;5054567;22;20049;-78
2021/04/01 00:44:03;;;;;;;17.83;14.55;;;;;;;11.30;38.98;99940.97;5036616;28;20033;-79
2021/04/01 00:46:29;;;;;;;17.63;14.90;;;;;;;11.06;39.09;99894.31;5036765;28;20029;-80
2021/04/01 00:48:54;;;;;;;16.02;13.98;;;;;;;11.32;39.07;99923.94;5018935;28;20037;-78
2021/04/01 00:51:20;;;;;;;13.25;11.68;;;;;;;10.91;39.53;99880.19;5036621;28;20112;-78
2021/04/01 00:53:45;;;;;;;11.60;9.90;;;;;;;11.10;39.63;99919.41;5036508;28;20021;-78
2021/04/01 00:56:11;;;;;;;14.25;9.65;;;;;;;11.01;40.08;99912.50;5019283;28;20459;-78
2021/04/01 00:58:36;;;;;;;11.38;9.23;;;;;;;10.75;40.56;99866.06;5019045;28;20168;-78
2021/04/01 01:03:52;;;;;;;10.73;9.63;;;;;;;10.82;41.16;99882.84;5031079;28;20080;-78
2021/04/01 01:06:17;;;;;;;10.35;9.25;;;;;;;10.43;41.23;99821.28;5036434;28;20074;-78
2021/04/01 01:08:43;;;;;;;10.80;8.90;;;;;;;10.39;41.63;99819.94;5036597;28;20491;-78
2021/04/01 01:11:09;;;;;;;10.30;9.20;;;;;;;10.50;42.42;99860.03;5036436;28;20029;-78
2021/04/01 01:13:35;;;;;;;13.15;8.82;;;;;;;10.43;42.13;99850.31;5036312;28;20028;-78
2021/04/01 01:16:01;;;;;;;10.23;9.07;;;;;;;10.65;42.26;99872.53;5018692;28;20032;-79
2021/04/01 01:18:27;;;;;;;11.55;9.30;;;;;;;10.02;42.37;99771.22;5018615;28;20118;-78
2021/04/01 01:20:56;;;;;;;11.18;9.20;;;;;;;10.67;42.32;99867.91;5035925;28;20083;-79
2021/04/01 01:23:22;;;;;;;11.48;10.27;;;;;;;10.64;42.32;99863.78;5036189;28;20048;-78
2021/04/01 01:25:47;;;;;;;11.60;9.48;;;;;;;9.99;42.88;99790.00;5035929;28;20033;-79
2021/04/01 01:28:13;;;;;;;11.45;9.73;;;;;;;10.46;43.02;99861.38;5036002;28;20017;-79
2021/04/01 01:30:38;;;;;;;10.45;9.02;;;;;;;10.19;42.93;99812.38;5018382;28;20030;-79
2021/04/01 01:33:06;;;;;;;10.50;9.48;;;;;;;10.44;42.48;99844.06;5035838;28;20100;-79
2021/04/01 01:35:35;;;;;;;9.95;8.88;;;;;;;10.43;42.75;99850.31;5035738;28;20402;-79
2021/04/01 01:38:03;;;;;;;12.15;9.75;;;;;;;10.48;42.35;99853.28;5017802;28;20513;-79
2021/04/01 01:40:31;;;;;;;10.70;9.30;;;;;;;10.52;42.63;99851.94;5035606;28;20045;-79
2021/04/01 01:42:59;;;;;;;10.25;9.15;;;;;;;10.31;42.79;99823.44;5035484;28;20104;-79
2021/04/01 01:45:27;;;;;;;13.90;9.68;;;;;;;10.28;42.43;99780.72;5035595;28;20017;-78
2021/04/01 01:47:53;;;;;;;12.73;10.68;;;;;;;10.61;42.41;99842.19;5035439;28;20029;-79
2021/04/01 01:50:21;;;;;;;14.10;10.25;;;;;;;10.59;42.03;99831.78;5018045;28;20021;-81
2021/04/01 01:52:46;;;;;;;11.70;10.13;;;;;;;10.33;42.17;99759.94;5035525;28;20036;-79
2021/04/01 01:55:13;;;;;;;12.07;9.30;;;;;;;10.71;41.29;99824.31;5035532;28;20377;-78
2021/04/01 01:57:39;;;;;;;10.38;8.70;;;;;;;10.51;41.24;99781.66;5017884;28;20053;-78
2021/04/01 02:00:11;;;;;;;14.13;9.55;;;;;;;10.65;40.91;99802.06;5035498;28;20051;-79
2021/04/01 02:02:36;;;;;;;11.07;8.82;;;;;;;10.81;40.25;99812.53;5017715;28;20033;-77
2021/04/01 02:05:04;;;;;;;12.63;10.00;;;;;;;10.67;40.11;99799.25;5017607;28;20147;-78
2021/04/01 02:07:29;;;;;;;10.43;9.02;;;;;;;10.68;40.42;99811.44;5035083;28;20028;-79
2021/04/01 02:09:55;;;;;;;11.00;8.57;;;;;;;10.53;40.28;99782.31;5035250;28;20022;-79
2021/04/01 02:12:20;;;;;;;10.93;9.65;;;;;;;10.64;40.01;99800.41;5035089;28;20444;-78
2021/04/01 02:14:46;;;;;;;11.63;8.80;;;;;;;10.77;39.88;99811.25;5035196;28;20082;-79
2021/04/01 02:17:19;;;;;;;10.73;9.30;;;;;;;10.13;39.71;99710.16;5034986;28;20013;-78
2021/04/01 02:19:45;;;;;;;12.82;8.65;;;;;;;10.68;39.63;99790.31;5035004;28;20036;-78
2021/04/01 02:22:11;;;;;;;10.65;8.55;;;;;;;10.78;39.26;99820.81;5035083;28;20013;-78
2021/04/01 02:24:36;;;;;;;8.90;8.00;;;;;;;10.74;39.31;99795.75;5035160;28;20025;-78
2021/04/01 02:27:02;;;;;;;9.93;7.72;;;;;;;10.73;39.11;99791.44;5034815;28;20069;-77
2021/04/01 02:29:27;;;;;;;9.30;8.07;;;;;;;10.50;39.23;99750.97;5035044;28;20025;-77
2021/04/01 02:31:52;;;;;;;9.75;8.43;;;;;;;10.60;38.96;99763.97;5034801;28;20032;-77
2021/04/01 02:34:19;;;;;;;10.30;9.10;;;;;;;10.63;39.11;99769.72;5034848;28;20030;-78
2021/04/01 02:36:45;;;;;;;14.52;10.05;;;;;;;10.44;38.99;99751.66;5034900;28;20017;-77
2021/04/01 02:39:11;;;;;;;11.10;9.95;;;;;;;10.35;39.06;99737.66;5034734;28;20025;-78
2021/04/01 02:41:37;;;;;;;11.90;9.45;;;;;;;10.74;39.27;99792.28;5034714;28;20064;-78
2021/04/01 02:44:02;;;;;;;12.15;9.27;;;;;;;10.55;39.21;99767.13;5034601;28;20053;-78
2021/04/01 02:46:28;;;;;;;11.77;9.25;;;;;;;10.21;38.86;99719.06;5017111;28;20014;-77
2021/04/01 02:48:53;;;;;;;10.27;8.80;;;;;;;10.18;38.85;99712.28;5034619;28;20029;-77
2021/04/01 02:51:19;;;;;;;12.90;9.23;;;;;;;10.34;38.83;99745.75;5037022;28;20104;-77
2021/04/01 02:53:44;;;;;;;11.57;9.00;;;;;;;10.51;38.72;99771.09;5038872;28;20446;-78
2021/04/01 02:56:09;;;;;;;11.13;9.35;;;;;;;10.48;38.92;99763.53;5038807;28;20459;-79
2021/04/01 02:58:37;;;;;;;11.35;9.60;;;;;;;10.30;39.07;99734.69;5021360;28;20108;-77
2021/04/01 03:01:02;;;;;;;12.48;10.25;;;;;;;10.52;38.88;99780.66;5038570;28;20018;-77
2021/04/01 03:03:31;;;;;;;11.48;9.35;;;;;;;10.26;38.76;99733.41;5038578;28;20471;-77
2021/04/01 03:05:58;;;;;;;13.73;10.35;;;;;;;10.35;38.89;99771.13;5038482;28;20328;-77
2021/04/01 03:08:24;;;;;;;12.02;9.43;;;;;;;10.00;38.84;99712.53;5020992;28;20029;-78
2021/04/01 03:10:49;;;;;;;13.75;10.30;;;;;;;10.29;39.21;99751.53;5038473;28;20017;-77
2021/04/01 03:13:15;;;;;;;12.23;10.73;;;;;;;10.37;39.03;99766.50;5020943;28;20017;-77
2021/04/01 03:15:40;;;;;;;12.77;10.23;;;;;;;10.51;39.38;99771.09;5038459;28;20120;-77
2021/04/01 03:18:05;;;;;;;11.50;9.75;;;;;;;10.57;39.67;99780.97;5020875;28;20456;-77
2021/04/01 03:20:31;;;;;;;16.60;11.27;;;;;;;10.24;39.68;99714.28;5021180;28;20026;-77
2021/04/01 03:22:56;;;;;;;12.65;10.13;;;;;;;9.98;40.15;99696.03;5038295;28;20025;-77
2021/04/01 03:25:22;;;;;;;14.02;11.15;;;;;;;10.43;40.53;99761.41;5038428;28;20032;-78
2021/04/01 03:27:47;;;;;;;16.65;10.57;;;;;;;9.95;40.67;99687.66;5020680;28;20029;-80
2021/04/01 03:30:14;;;;;;;16.45;11.13;;;;;;;10.32;41.41;99756.47;5038177;28;20030;-77
2021/04/01 03:32:43;;;;;;;12.25;10.38;;;;;;;10.36;41.36;99749.84;5038340;28;20021;-77
2021/04/01 03:35:10;;;;;;;13.10;10.25;;;;;;;10.37;41.63;99759.41;5037868;28;20104;-78
2021/04/01 03:37:36;;;;;;;14.25;11.65;;;;;;;9.98;41.52;99689.94;5037897;28;20428;-77
2021/04/01 03:40:06;;;;;;;13.77;10.65;;;;;;;10.42;41.69;99761.56;5037904;28;20064;-77
2021/04/01 03:42:32;;;;;;;13.48;10.18;;;;;;;10.43;41.81;99758.75;5020358;28;20029;-78
2021/04/01 03:44:58;;;;;;;13.32;10.38;;;;;;;10.43;42.23;99755.28;5037801;28;20352;-78
2021/04/01 03:47:23;;;;;;;12.88;10.63;;;;;;;10.44;42.29;99756.94;5037771;28;20022;-77
2021/04/01 03:49:49;;;;;;;13.95;9.20;;;;;;;10.15;42.05;99710.81;5037935;28;20097;-78
2021/04/01 03:52:14;;;;;;;10.82;9.73;;;;;;;10.19;42.34;99738.50;5020154;28;20056;-78
2021/04/01 03:54:42;;;;;;;13.32;10.73;;;;;;;10.40;42.36;99743.25;5037621;28;20025;-78
2021/04/01 03:57:07;;;;;;;11.40;10.15;;;;;;;10.28;42.13;99725.31;5037657;28;20025;-78
2021/04/01 04:02:32;;;;;;;13.23;10.73;;;;;;;10.06;42.66;99711.84;5036960;28;20049;-78
2021/04/01 04:13:16;;;;;;;16.63;11.48;;;;;;;10.29;42.81;99766.53;5037408;28;20018;-78
2021/04/01 04:15:41;;;;;;;19.65;11.20;;;;;;;9.60;42.89;99642.25;5037366;28;20419;-78
2021/04/01 04:18:07;;;;;;;17.08;11.10;;;;;;;10.36;42.81;99762.22;5037112;28;20104;-78
2021/04/01 04:20:32;;;;;;;12.13;10.75;;;;;;;10.00;42.55;99695.88;5037259;28;20022;-77
2021/04/01 04:22:58;;;;;;;15.05;10.57;;;;;;;10.56;42.29;99783.78;5036972;28;20018;-78
2021/04/01 04:25:26;;;;;;;17.02;11.82;;;;;;;10.62;42.34;99788.38;5037147;28;20018;-78
2021/04/01 04:30:27;;;;;;;13.73;11.32;;;;;;;10.64;42.32;99826.00;5037601;28;20458;-77
2021/04/01 04:32:53;;;;;;;13.38;11.40;;;;;;;10.71;42.13;99854.19;5019629;28;20017;-77
2021/04/01 04:35:19;;;;;;;13.65;12.23;;;;;;;10.55;41.93;99838.41;5036931;28;20033;-78
2021/04/01 04:37:44;;;;;;;16.20;11.55;;;;;;;10.52;41.77;99859.03;5036879;28;20013;-78
2021/04/01 04:40:11;;;;;;;14.57;11.02;;;;;;;9.75;42.38;99779.50;5019112;28;20051;-78
2021/04/01 04:42:37;;;;;;;13.88;11.35;;;;;;;10.39;42.08;99862.19;5036519;28;20030;-78
2021/04/01 04:45:06;;;;;;;13.80;11.60;;;;;;;10.31;42.08;99863.03;5036973;28;20017;-78
2021/04/01 04:47:32;;;;;;;11.88;10.55;;;;;;;9.77;42.42;99791.53;5018537;28;20025;-79
2021/04/01 04:49:58;;;;;;;17.48;11.20;;;;;;;9.98;42.14;99827.94;5036736;28;20025;-77
2021/04/01 04:52:23;;;;;;;16.08;11.50;;;;;;;10.25;41.94;99890.09;5036771;28;20018;-78
2021/04/01 04:54:49;;;;;;;17.15;12.60;;;;;;;10.30;42.17;99892.22;5019037;28;20392;-77
2021/04/01 04:57:27;;;;;;;15.15;12.35;;;;;;;10.20;42.47;99892.41;5018787;28;20009;-77
2021/04/01 05:05:06;;;;;;;16.02;12.98;;;;;;;10.34;42.32;99906.72;5023033;28;20080;-78
2021/04/01 05:07:32;;;;;;;18.35;12.43;;;;;;;10.37;42.54;99901.13;5017889;28;20379;-78
2021/04/01 05:09:58;;;;;;;13.27;10.90;;;;;;;10.46;42.53;99908.88;5035990;28;20035;-77
2021/04/01 05:12:24;;;;;;;16.08;12.57;;;;;;;10.35;42.36;99882.00;5033462;28;20033;-78
2021/04/01 05:14:49;;;;;;;18.13;12.55;;;;;;;10.50;42.40;99909.38;4999462;28;20026;-77
2021/04/01 05:17:17;;;;;;;14.10;11.93;;;;;;;10.24;42.67;99861.22;5016339;28;20022;-78
2021/04/01 05:19:43;;;;;;;15.55;13.65;;;;;;;10.04;42.67;99829.91;5016292;28;20084;-78
2021/04/01 05:24:55;;;;;;;19.70;13.43;;;;;;;10.66;42.15;99914.59;5032342;28;20064;-78
2021/04/01 05:27:28;;;;;;;14.93;13.05;;;;;;;10.30;42.53;99871.09;5035947;28;20049;-78
2021/04/01 05:30:02;;;;;;;18.83;13.57;;;;;;;10.66;42.38;99927.00;5036006;28;20029;-77
2021/04/01 05:32:35;;;;;;;17.40;12.10;;;;;;;10.35;42.23;99880.16;5035847;28;20026;-77
2021/04/01 05:35:04;;;;;;;17.80;13.40;;;;;;;10.71;41.78;99920.19;5035842;28;20060;-78
2021/04/01 05:37:30;;;;;;;26.55;15.77;;;;;;;10.55;41.83;99896.47;5019590;28;20029;-77
2021/04/01 05:39:56;;;;;;;17.52;13.20;;;;;;;10.89;41.46;99935.81;4998490;28;20022;-77
2021/04/01 05:42:24;;;;;;;15.27;12.15;;;;;;;10.97;41.03;99937.63;5015746;28;20033;-78
2021/04/01 05:50:25;;;;;;;15.50;10.98;;;;;;;10.83;41.21;99939.16;5034345;28;20077;-77
2021/04/01 06:06:30;;;;;;;15.15;12.65;;;;;;;10.83;40.92;99957.63;5033370;28;20057;-77
2021/04/01 06:09:01;;;;;;;15.95;12.93;;;;;;;10.37;41.10;99893.19;5014969;28;20037;-77
2021/04/01 06:11:27;;;;;;;16.60;13.82;;;;;;;10.78;40.85;99970.53;4996257;28;20048;-77
2021/04/01 06:14:11;;;;;;;14.63;12.00;;;;;;;10.78;40.85;99962.59;4996101;28;20033;-80
2021/04/01 06:16:43;;;;;;;15.35;11.75;;;;;;;10.89;40.93;99972.00;4998249;28;20029;-78
2021/04/01 06:19:10;;;;;;;;;;;;;;;10.81;41.18;99973.66;4998074;28;20293;-77
2021/04/01 06:21:45;;;;;;;17.88;12.27;;;;;;;10.60;40.32;99920.56;5015189;28;19932;-77
2021/04/01 06:24:21;;;;;;;15.20;12.07;;;;;;;10.90;40.85;99971.00;5004821;28;20032;-77
2021/04/01 06:26:51;;;;;;;16.55;12.23;;;;;;;10.94;40.75;99961.72;5024683;28;20037;-78
2021/04/01 06:29:19;;;;;;;17.05;12.18;;;;;;;11.10;40.31;99977.53;5024729;28;20021;-77
2021/04/01 06:31:46;;;;;;;14.13;12.35;;;;;;;11.17;40.21;99973.25;5024689;28;20036;-77
2021/04/01 06:34:12;;;;;;;15.13;12.18;;;;;;;10.94;39.79;99936.13;5018166;28;20025;-78
2021/04/01 06:36:50;;;;;;;14.10;11.70;;;;;;;10.91;39.90;99928.56;5030678;28;20047;-77
2021/04/01 06:39:20;;;;;;;14.25;11.35;;;;;;;11.15;39.72;99962.03;5031450;28;20032;-78
2021/04/01 06:41:45;;;;;;;11.43;10.23;;;;;;;11.23;39.74;99977.84;5029891;28;20499;-77
2021/04/01 06:44:34;;;;;;;12.77;10.45;;;;;;;11.34;39.44;99993.31;5029415;28;20108;-77
2021/04/01 06:47:10;;;;;;;12.52;11.25;;;;;;;11.03;39.83;99958.06;5022878;28;20440;-78
2021/04/01 06:50:05;;;;;;;13.23;11.80;;;;;;;11.20;40.03;99988.75;5033922;23;20128;-79
2021/04/01 06:52:41;;;;;;;14.90;11.20;;;;;;;10.71;39.96;99911.47;5030416;28;20036;-78
2021/04/01 07:05:57;;;;;;;12.88;10.93;;;;;;;11.27;40.04;99997.66;5033325;28;20022;-77
2021/04/01 07:08:49;;;;;;;14.57;13.05;;;;;;;11.00;39.63;99939.91;5032584;28;20354;-78
2021/04/01 07:11:34;;;;;;;12.13;10.70;;;;;;;11.46;39.63;99997.22;5030358;28;20055;-81
2021/04/01 07:14:04;;;;;;;14.75;10.05;;;;;;;10.97;39.49;99898.81;5032746;28;20030;-81
2021/04/01 07:16:47;;;;;;;15.70;10.98;;;;;;;11.46;39.56;99957.56;5031951;28;20088;-78
2021/04/01 07:20:08;;;;;;;12.50;11.20;;;;;;;11.75;39.35;99993.13;5032507;28;20040;-78
2021/04/01 07:47:18;;;;;;;9.95;8.00;;;;;;;12.08;37.52;99962.03;5016813;28;20029;-77
2021/04/01 07:49:46;;;;;;;9.95;7.82;;;;;;;12.38;36.79;99997.34;5015962;28;20048;-78
2021/04/01 07:52:14;;;;;;;11.30;8.88;;;;;;;11.99;37.11;99928.69;5014842;28;20038;-80
2021/04/01 08:00:22;;;;;;;11.02;8.82;;;;;;;12.74;36.92;99989.59;5017207;28;20030;-78
2021/04/01 08:05:31;;;;;;;9.43;8.02;;;;;;;12.72;36.25;99987.13;5014357;28;20022;-78
2021/04/01 08:08:00;;;;;;;10.45;8.20;;;;;;;12.82;36.51;99988.69;5029664;28;20052;-78
2021/04/01 08:10:29;;;;;;;10.73;6.93;;;;;;;12.98;35.55;99994.63;5015151;28;20022;-77
2021/04/01 08:13:05;;;;;;;9.48;7.70;;;;;;;12.39;35.85;99882.47;5014554;28;20053;-77
2021/04/01 08:15:37;;;;;;;9.57;8.38;;;;;;;12.91;36.07;99982.28;5013779;28;20108;-78
2021/04/01 08:18:18;;;;;;;14.88;10.35;;;;;;;13.04;35.94;99982.47;5013896;28;20368;-82
2021/04/01 08:20:47;;;;;;;12.90;11.00;;;;;;;13.17;35.55;99980.03;5016677;28;20030;-76
2021/04/01 08:23:22;;;;;;;14.80;12.43;;;;;;;13.23;35.72;99991.72;5010706;28;20032;-83
2021/04/01 08:26:01;;;;;;;15.27;12.60;;;;;;;12.69;35.72;99908.00;4997512;28;20027;-82
2021/04/01 08:36:24;;;;;;;12.93;11.20;;;;;;;13.14;35.44;99894.72;5016563;28;20061;-78
2021/04/01 08:38:50;;;;;;;14.10;10.88;;;;;;;13.31;35.58;99890.84;5015734;28;20053;-79
2021/04/01 08:41:18;;;;;;;13.40;10.25;;;;;;;13.95;35.12;99967.88;5015558;28;20436;-80
2021/04/01 08:44:08;;;;;;;12.68;9.30;;;;;;;14.12;34.65;99964.00;5016515;28;20500;-83
2021/04/01 08:46:57;;;;;;;17.67;12.38;;;;;;;14.24;34.26;99959.00;4997203;28;20041;-79
2021/04/01 08:49:37;;;;;;;11.90;9.43;;;;;;;14.35;34.44;99961.13;5014091;28;20041;-78
2021/04/01 08:52:15;;;;;;;15.55;9.40;;;;;;;14.49;34.57;99954.94;5011557;28;20040;-78
2021/04/01 08:54:42;;;;;;;13.82;9.75;;;;;;;14.61;34.03;99958.69;5023273;28;20029;-79
2021/04/01 08:57:37;;;;;;;11.05;9.27;;;;;;;14.45;33.09;99910.34;5014844;28;20018;-79
2021/04/01 09:00:11;;;;;;;13.57;9.48;;;;;;;14.58;33.47;99923.72;5013272;28;20372;-80
2021/04/01 09:02:37;;;;;;;14.25;10.77;;;;;;;14.21;33.29;99823.94;5014204;28;20033;-79
2021/04/01 09:05:08;;;;;;;13.07;11.25;;;;;;;14.51;33.29;99859.09;5016066;28;20030;-79
2021/04/01 09:07:42;;;;;;;12.13;10.23;;;;;;;15.31;32.75;99945.38;5015209;28;20456;-79
2021/04/01 09:10:15;;;;;;;14.32;10.50;;;;;;;15.37;32.96;99953.41;5013872;28;20021;-78
2021/04/01 09:12:50;;;;;;;12.57;9.98;;;;;;;15.30;32.73;99938.44;5014410;28;20029;-79
2021/04/01 09:15:37;;;;;;;16.58;9.57;;;;;;;15.55;32.09;99943.00;5005739;28;20057;-78
2021/04/01 09:18:05;;;;;;;13.32;9.82;;;;;;;15.15;32.13;99864.91;5012957;28;20029;-78
2021/04/01 09:20:31;;;;;;;9.95;8.50;;;;;;;15.66;32.10;99943.50;5014340;28;20034;-78
2021/04/01 09:23:06;;;;;;;11.00;9.05;;;;;;;15.57;31.28;99913.53;5014436;28;20030;-78
2021/04/01 09:25:44;;;;;;;12.55;10.57;;;;;;;15.88;31.09;99935.16;5013918;28;20026;-79
2021/04/01 09:28:10;;;;;;;11.88;9.93;;;;;;;15.53;31.79;99891.84;5012780;28;20083;-78
2021/04/01 09:30:37;;;;;;;11.00;9.85;;;;;;;15.63;31.58;99896.00;5011896;28;20042;-78
2021/04/01 09:33:20;;;;;;;10.90;8.80;;;;;;;16.11;30.49;99934.78;5013020;28;20044;-78
2021/04/01 09:35:46;;;;;;;12.00;8.95;;;;;;;16.02;30.82;99911.19;5028149;28;20038;-79
2021/04/01 09:38:12;;;;;;;13.68;9.05;;;;;;;15.74;30.98;99842.16;5013948;28;20507;-80
2021/04/01 09:40:40;;;;;;;9.93;8.30;;;;;;;16.61;30.14;99934.38;5014954;28;20467;-81
2021/04/01 09:43:25;;;;;;;10.90;9.73;;;;;;;16.91;29.72;99953.41;5014138;28;20048;-79
2021/04/01 09:45:58;;;;;;;11.52;9.85;;;;;;;17.10;29.86;99931.22;4982659;28;20433;-79
2021/04/01 09:48:31;;;;;;;10.38;9.07;;;;;;;17.21;29.66;99927.88;5007783;28;20057;-79
2021/04/01 09:51:00;;;;;;;12.50;9.77;;;;;;;17.37;29.37;99926.59;5011691;28;20080;-79
2021/04/01 09:53:26;;;;;;;12.00;9.60;;;;;;;17.36;29.33;99895.59;5009575;28;20497;-80
2021/04/01 09:55:54;;;;;;;10.25;8.27;;;;;;;17.04;28.88;99852.81;5030231;28;20036;-79
2021/04/01 09:58:38;;;;;;;9.57;8.65;;;;;;;17.59;28.08;99913.72;5002872;28;20149;-79
2021/04/01 10:04:14;;;;;;;10.68;9.30;;;;;;;17.63;28.04;99827.63;5015372;28;20095;-79
2021/04/01 10:06:44;;;;;;;10.65;8.70;;;;;;;17.86;27.80;99845.81;5013965;28;20441;-78
2021/04/01 10:09:18;;;;;;;11.73;9.27;;;;;;;17.99;26.96;99834.19;5014124;28;20425;-80
2021/04/01 10:11:53;;;;;;;8.95;7.55;;;;;;;18.59;27.33;99894.09;5012627;28;20030;-79
2021/04/01 10:14:20;;;;;;;9.23;8.05;;;;;;;17.99;27.23;99794.94;5015143;28;20119;-79
2021/04/01 10:16:58;;;;;;;10.57;8.20;;;;;;;18.85;26.58;99879.63;5015046;28;20456;-79
2021/04/01 10:19:46;;;;;;;13.23;8.90;;;;;;;18.66;26.32;99844.06;5013726;28;20033;-80
2021/04/01 10:22:31;;;;;;;14.23;9.35;;;;;;;18.54;25.52;99789.63;5030165;28;20065;-80
2021/04/01 10:27:52;;;;;;;12.02;9.45;;;;;;;18.67;26.29;99799.41;5013891;28;20041;-77
2021/04/01 10:30:18;;;;;;;13.23;9.27;;;;;;;19.20;26.20;99861.09;5013346;28;20029;-78
2021/04/01 10:33:14;;;;;;;12.77;9.13;;;;;;;19.33;24.85;99863.59;5011352;28;20172;-77
2021/04/01 10:35:42;;;;;;;10.43;7.75;;;;;;;19.48;25.44;99863.19;5010888;28;20041;-78
2021/04/01 10:38:09;;;;;;;9.73;8.55;;;;;;;19.56;25.17;99846.00;5010714;28;20382;-78
2021/04/01 10:40:35;;;;;;;10.95;7.95;;;;;;;19.50;24.79;99807.53;5012456;28;20026;-78
2021/04/01 10:43:09;;;;;;;8.38;7.47;;;;;;;19.95;24.53;99848.06;5011489;28;20132;-79
2021/04/01 10:45:38;;;;;;;9.80;8.40;;;;;;;19.80;24.43;99807.50;5012098;28;20092;-79
2021/04/01 10:48:33;;;;;;;10.25;9.13;;;;;;;20.19;24.13;99843.56;5021107;28;20034;-80
2021/04/01 10:51:07;;;;;;;11.18;8.13;;;;;;;19.79;23.88;99756.81;5011546;28;20041;-79
2021/04/01 10:53:38;;;;;;;9.80;8.00;;;;;;;20.36;23.99;99840.97;5010400;28;20034;-78
2021/04/01 10:56:05;;;;;;;9.40;8.45;;;;;;;20.05;23.90;99776.97;5009691;28;20061;-77
2021/04/01 10:58:31;;;;;;;11.60;7.95;;;;;;;20.58;23.94;99833.16;5013392;28;20496;-79
2021/04/01 11:00:59;;;;;;;8.32;7.32;;;;;;;20.64;23.85;99832.22;5014524;28;20087;-78
2021/04/01 11:03:27;;;;;;;7.95;7.15;;;;;;;20.57;23.81;99784.06;5014272;28;20026;-78
2021/04/01 11:05:55;;;;;;;9.20;8.23;;;;;;;20.54;23.70;99746.16;5013324;28;20044;-77
2021/04/01 11:08:23;;;;;;;12.05;8.95;;;;;;;20.95;23.56;99790.72;5014122;28;20033;-79
2021/04/01 11:10:58;;;;;;;14.57;10.30;;;;;;;20.98;23.46;99768.78;5014313;28;20092;-79
2021/04/01 11:13:32;;;;;;;12.50;8.88;;;;;;;21.34;22.94;99807.03;5016877;28;20293;-79
2021/04/01 11:15:59;;;;;;;11.93;8.82;;;;;;;21.50;23.11;99806.25;5018078;28;20022;-78
2021/04/01 11:18:27;;;;;;;9.68;8.10;;;;;;;21.43;23.05;99786.78;5012039;28;20033;-76
2021/04/01 11:20:52;;;;;;;8.73;7.43;;;;;;;21.58;22.98;99799.69;5016531;28;20025;-76
2021/04/01 11:23:28;;;;;;;10.90;7.70;;;;;;;21.65;22.19;99803.03;5016041;28;20026;-76
2021/04/01 11:25:58;;;;;;;8.88;7.68;;;;;;;21.64;22.84;99783.41;5012776;28;20117;-77
2021/04/01 11:28:37;;;;;;;10.23;8.43;;;;;;;21.80;22.76;99797.91;5014203;28;20054;-77
2021/04/01 11:31:05;;;;;;;9.90;8.90;;;;;;;21.89;22.53;99789.16;5014977;28;20393;-77
2021/04/01 11:33:30;;;;;;;8.73;7.78;;;;;;;21.69;22.57;99755.78;5016290;28;20349;-75
2021/04/01 11:36:01;;;;;;;8.77;7.85;;;;;;;22.00;22.83;99787.44;5032891;28;20030;-76
2021/04/01 11:38:29;;;;;;;9.23;8.30;;;;;;;21.92;22.80;99774.44;5016541;28;20343;-78
2021/04/01 11:41:03;;;;;;;10.73;7.28;;;;;;;21.96;22.63;99759.44;5017368;28;20280;-76
2021/04/01 11:43:31;;;;;;;9.07;8.15;;;;;;;22.04;22.50;99764.41;5016123;28;20044;-79
2021/04/01 11:45:58;;;;;;;8.20;7.38;;;;;;;22.08;22.41;99767.41;5016900;28;20033;-78
2021/04/01 11:48:23;;;;;;;10.55;9.05;;;;;;;22.27;22.36;99776.00;5016174;28;20169;-79
2021/04/01 11:50:50;;;;;;;12.25;8.68;;;;;;;22.41;22.27;99747.72;5016284;28;20053;-77
2021/04/01 11:53:16;;;;;;;15.95;12.73;;;;;;;22.58;22.02;99747.63;5015979;28;20026;-77
2021/04/01 11:55:53;;;;;;;12.70;8.02;;;;;;;22.73;21.10;99737.84;5014668;28;20421;-78
2021/04/01 11:58:21;;;;;;;8.60;7.43;;;;;;;22.63;21.71;99718.09;4999746;28;20026;-78
2021/04/01 12:00:49;;;;;;;8.40;6.78;;;;;;;22.87;21.86;99751.75;5016325;28;20030;-78
2021/04/01 12:03:22;;;;;;;9.93;6.43;;;;;;;22.74;21.79;99757.50;5016609;28;20432;-77
2021/04/01 12:05:49;;;;;;;11.60;7.63;;;;;;;22.40;21.94;99724.56;5014572;28;20057;-77
2021/04/01 12:08:15;;;;;;;10.63;7.50;;;;;;;22.44;22.33;99733.75;5015262;28;20097;-77
2021/04/01 12:10:41;;;;;;;7.78;5.80;;;;;;;21.91;22.39;99653.69;5016096;28;20037;-79
2021/04/01 12:13:07;;;;;;;6.90;6.20;;;;;;;22.42;22.14;99735.88;5014329;28;20022;-79
2021/04/01 12:15:35;;;;;;;9.55;6.95;;;;;;;22.16;21.99;99699.75;5013235;28;20044;-78
2021/04/01 12:18:05;;;;;;;7.43;6.72;;;;;;;22.24;22.43;99728.91;5013366;28;20033;-78
2021/04/01 12:20:32;;;;;;;11.00;7.57;;;;;;;21.76;22.73;99659.69;5010505;28;20030;-78
2021/04/01 12:23:11;;;;;;;10.15;6.32;;;;;;;21.93;22.47;99702.66;5015638;28;20147;-80
2021/04/01 12:25:37;;;;;;;7.75;5.93;;;;;;;21.70;23.01;99709.88;5013383;28;20097;-79
2021/04/01 12:28:03;;;;;;;8.10;6.80;;;;;;;21.64;22.99;99708.16;5013182;28;20471;-80
2021/04/01 12:30:33;;;;;;;9.68;6.85;;;;;;;21.64;23.05;99707.34;5016751;28;20140;-78
2021/04/01 12:33:12;;;;;;;8.50;6.90;;;;;;;21.33;22.95;99688.06;5031779;28;20060;-78
2021/04/01 12:35:59;;;;;;;10.68;6.00;;;;;;;21.07;22.79;99696.72;5004744;28;20030;-78
2021/04/01 12:38:32;;;;;;;8.02;6.00;;;;;;;20.71;23.69;99655.00;5001999;28;20069;-78
2021/04/01 12:41:02;;;;;;;7.82;6.00;;;;;;;20.63;23.79;99640.91;5016764;28;20030;-77
2021/04/01 12:43:33;;;;;;;6.55;5.93;;;;;;;20.55;23.83;99656.59;5015850;28;20030;-78
2021/04/01 12:46:00;;;;;;;8.07;6.63;;;;;;;20.81;23.83;99684.72;5014416;28;20030;-78
2021/04/01 12:48:37;;;;;;;7.30;6.55;;;;;;;20.59;23.80;99665.78;5015760;28;20038;-78
2021/04/01 12:51:04;;;;;;;9.00;5.75;;;;;;;20.49;24.04;99647.63;5003242;28;20025;-79
2021/04/01 12:53:29;;;;;;;7.72;7.03;;;;;;;20.57;23.93;99663.34;5013943;28;20025;-79
2021/04/01 12:56:07;;;;;;;7.68;6.80;;;;;;;19.95;23.88;99545.22;5015343;28;20368;-78
2021/04/01 13:01:05;;;;;;;9.38;6.68;;;;;;;20.05;23.95;99579.44;5011962;28;20017;-78
2021/04/01 13:03:31;;;;;;;8.68;6.70;;;;;;;20.64;24.18;99673.94;5016308;28;20050;-77
2021/04/01 13:06:04;;;;;;;8.82;7.25;;;;;;;20.18;24.09;99587.22;5014890;28;20108;-76
2021/04/01 13:11:15;;;;;;;8.00;7.05;;;;;;;21.04;23.93;99665.81;5015647;28;20053;-79
2021/04/01 13:13:41;;;;;;;7.38;6.03;;;;;;;20.94;23.93;99647.66;5015385;28;20475;-78
2021/04/01 13:16:07;;;;;;;7.60;6.90;;;;;;;20.93;23.57;99619.19;5015460;28;20069;-77
2021/04/01 13:18:33;;;;;;;8.25;6.65;;;;;;;21.26;23.57;99660.53;5014530;28;20398;-79
2021/04/01 13:20:58;;;;;;;8.35;6.68;;;;;;;21.30;23.33;99656.31;4995285;28;20026;-80